Time;durP1;ratioP1;P1;durP2;ratioP2;P2;SDS_P1;SDS_P2;PMS_P1;PMS_P2;Temp;Humidity;BMP_temperature;BMP_pressure;BME280_temperature;BME280_humidity;BME280_pressure;Samples;Min_cycle;Max_cycle;Signal;HPM_P1;HPM_P2
2023/01/06 00:01:31;;;;;;;12.85;7.15;;;;;;;9.45;100.00;101763.88;5009280;28;20454;-82
2023/01/06 00:03:58;;;;;;;10.68;7.00;;;;;;;9.43;100.00;101759.53;5019515;28;20482;-82
2023/01/06 00:06:46;;;;;;;12.10;6.45;;;;;;;9.47;100.00;101751.50;5029792;28;20438;-81
2023/01/06 00:09:12;;;;;;;10.40;7.22;;;;;;;9.47;100.00;101754.13;5009680;28;20034;-82
2023/01/06 00:11:37;;;;;;;10.93;6.75;;;;;;;9.47;100.00;101746.25;5008710;28;20031;-81
2023/01/06 00:14:06;;;;;;;11.70;6.40;;;;;;;9.47;100.00;101748.88;5030378;28;20055;-81
2023/01/06 00:16:31;;;;;;;10.15;6.13;;;;;;;9.47;100.00;101744.47;5020596;28;20030;-81
2023/01/06 00:19:01;;;;;;;11.30;5.68;;;;;;;9.47;100.00;101741.84;5028561;28;20052;-81
2023/01/06 00:21:32;;;;;;;9.65;5.55;;;;;;;9.48;100.00;101737.44;5027838;28;20083;-81
2023/01/06 00:23:57;;;;;;;11.00;4.75;;;;;;;9.50;100.00;101738.19;5023823;28;20041;-82
2023/01/06 00:26:23;;;;;;;8.35;4.80;;;;;;;9.50;100.00;101732.94;5017438;28;20061;-81
2023/01/06 00:28:53;;;;;;;13.82;5.55;;;;;;;9.51;100.00;101727.59;5010548;28;20486;-82
2023/01/06 00:31:31;;;;;;;6.45;4.10;;;;;;;9.54;100.00;101729.19;5007549;28;20554;-81
2023/01/06 00:33:57;;;;;;;8.85;4.40;;;;;;;9.52;100.00;101731.91;5011487;28;20477;-81
2023/01/06 00:36:23;;;;;;;9.75;4.22;;;;;;;9.52;100.00;101731.06;5007981;28;20111;-81
2023/01/06 00:38:55;;;;;;;7.68;3.90;;;;;;;9.52;100.00;101736.31;5021816;28;20057;-81
2023/01/06 00:44:07;;;;;;;7.03;3.92;;;;;;;9.52;100.00;101729.28;5007740;28;20136;-83
2023/01/06 00:46:33;;;;;;;14.23;4.30;;;;;;;9.53;100.00;101727.50;5008266;28;20113;-82
2023/01/06 00:49:08;;;;;;;11.90;4.22;;;;;;;9.53;100.00;101730.13;5023813;28;20405;-82
2023/01/06 00:51:36;;;;;;;8.48;4.03;;;;;;;9.50;100.00;101723.28;5019084;28;20038;-81
2023/01/06 00:54:05;;;;;;;6.93;3.90;;;;;;;9.51;100.00;101717.09;5020641;28;20083;-82
2023/01/06 00:56:47;;;;;;;7.88;3.67;;;;;;;9.51;100.00;101727.59;5006218;28;20406;-81
2023/01/06 00:59:14;;;;;;;7.80;3.83;;;;;;;9.51;100.00;101724.97;4989181;28;20426;-84
2023/01/06 01:01:41;;;;;;;7.97;3.47;;;;;;;9.51;100.00;101724.13;5007436;28;20155;-83
2023/01/06 01:04:07;;;;;;;7.13;3.47;;;;;;;9.52;100.00;101725.81;5009260;28;20347;-82
2023/01/06 01:06:33;;;;;;;8.63;3.70;;;;;;;9.51;100.00;101721.50;5016193;28;20036;-83
2023/01/06 01:08:59;;;;;;;7.40;3.50;;;;;;;9.52;100.00;101712.69;5026906;28;20040;-83
2023/01/06 01:14:24;;;;;;;8.77;4.20;;;;;;;9.53;100.00;101712.59;5020809;28;20497;-83
2023/01/06 01:16:49;;;;;;;8.98;3.55;;;;;;;9.51;100.00;101709.22;5019441;28;20050;-84
2023/01/06 01:19:15;;;;;;;6.22;3.30;;;;;;;9.53;100.00;101711.75;5008975;28;20254;-83
2023/01/06 01:21:41;;;;;;;7.65;3.53;;;;;;;9.51;100.00;101705.72;5009909;28;20018;-82
2023/01/06 01:24:07;;;;;;;7.35;3.22;;;;;;;9.52;100.00;101710.91;5008095;28;20030;-80
2023/01/06 01:26:32;;;;;;;6.97;3.75;;;;;;;9.51;100.00;101708.34;5030437;28;20037;-80
2023/01/06 01:29:00;;;;;;;7.65;3.15;;;;;;;9.50;100.00;101706.66;5027715;28;20021;-81
2023/01/06 01:31:44;;;;;;;7.65;3.40;;;;;;;9.53;100.00;101709.97;5027743;28;20025;-82
2023/01/06 01:34:11;;;;;;;13.27;3.20;;;;;;;9.51;100.00;101693.44;5009448;28;20034;-82
2023/01/06 01:36:39;;;;;;;8.75;3.13;;;;;;;9.52;100.00;101702.16;5009045;28;20491;-83
2023/01/06 01:39:05;;;;;;;7.10;2.97;;;;;;;9.53;100.00;101706.50;5008651;28;20027;-83
2023/01/06 01:41:30;;;;;;;7.65;2.70;;;;;;;9.53;100.00;101698.59;5008579;28;20034;-81
2023/01/06 01:44:01;;;;;;;5.32;2.38;;;;;;;9.52;100.00;101692.50;5015190;28;20051;-82
2023/01/06 01:46:42;;;;;;;6.30;2.40;;;;;;;9.53;100.00;101691.56;5027909;28;20026;-82
2023/01/06 01:49:20;;;;;;;6.35;2.28;;;;;;;9.54;100.00;101684.53;5042332;28;20025;-82
2023/01/06 01:51:56;;;;;;;5.25;1.95;;;;;;;9.55;100.00;101683.59;5003315;28;20026;-82
2023/01/06 01:54:26;;;;;;;4.70;1.90;;;;;;;9.54;100.00;101676.66;5022975;28;20033;-82
2023/01/06 01:56:57;;;;;;;6.20;2.25;;;;;;;9.50;100.00;101669.88;4996625;28;20029;-82
2023/01/06 01:59:30;;;;;;;5.32;1.90;;;;;;;9.52;100.00;101670.66;5021186;28;20502;-82
2023/01/06 02:02:16;;;;;;;7.53;2.63;;;;;;;9.50;100.00;101676.00;5007955;28;20026;-82
2023/01/06 02:04:46;;;;;;;4.45;2.00;;;;;;;9.51;100.00;101671.56;5025674;28;20505;-82
2023/01/06 02:07:12;;;;;;;4.80;1.83;;;;;;;9.52;100.00;101662.75;5023036;28;20032;-82
2023/01/06 02:10:04;;;;;;;5.57;2.17;;;;;;;9.54;100.00;101672.25;5035287;28;20474;-82
2023/01/06 02:12:30;;;;;;;7.07;1.85;;;;;;;9.52;100.00;101668.03;5013282;28;20482;-81
2023/01/06 02:14:59;;;;;;;7.70;1.90;;;;;;;9.52;100.00;101675.91;5027053;28;20096;-82
2023/01/06 02:18:09;;;;;;;7.45;1.83;;;;;;;9.55;100.00;101673.09;5029134;28;20461;-82
2023/01/06 02:20:49;;;;;;;5.25;1.80;;;;;;;9.54;100.00;101669.63;5025186;28;20045;-81
2023/01/06 02:23:40;;;;;;;4.43;1.48;;;;;;;9.58;100.00;101663.25;5011078;28;20026;-82
2023/01/06 02:26:49;;;;;;;4.78;1.55;;;;;;;9.61;100.00;101664.91;5020336;28;20021;-82
2023/01/06 02:29:48;;;;;;;6.50;1.80;;;;;;;9.62;100.00;101653.44;5031824;28;20527;-81
2023/01/06 02:32:27;;;;;;;3.33;1.60;;;;;;;9.60;100.00;101647.41;5013259;28;20142;-81
2023/01/06 02:35:19;;;;;;;6.45;1.65;;;;;;;9.62;100.00;101643.78;5011219;28;20475;-82
2023/01/06 02:38:10;;;;;;;5.70;1.58;;;;;;;9.58;100.00;101641.41;5011309;28;20026;-82
2023/01/06 02:41:11;;;;;;;5.43;1.88;;;;;;;9.63;100.00;101631.50;5028449;28;20038;-82
2023/01/06 02:43:51;;;;;;;3.55;1.50;;;;;;;9.59;100.00;101628.16;4972458;28;20066;-82
2023/01/06 02:46:37;;;;;;;4.45;1.55;;;;;;;9.64;100.00;101617.44;5011963;28;20022;-81
2023/01/06 02:49:14;;;;;;;4.97;1.40;;;;;;;9.61;100.00;101617.59;5011916;28;20037;-82
2023/01/06 02:51:59;;;;;;;5.78;1.20;;;;;;;9.63;100.00;101610.47;5010454;28;20030;-81
2023/01/06 02:54:37;;;;;;;7.85;1.50;;;;;;;9.63;100.00;101607.84;5025984;28;20071;-82
2023/01/06 02:57:43;;;;;;;5.22;1.70;;;;;;;9.68;100.00;101606.66;5031082;28;20018;-81
2023/01/06 03:00:12;;;;;;;4.32;1.35;;;;;;;9.67;100.00;101604.09;5005949;28;20041;-82
2023/01/06 03:02:41;;;;;;;4.90;1.33;;;;;;;9.67;100.00;101609.38;5010933;28;20510;-83
2023/01/06 03:05:10;;;;;;;3.88;1.23;;;;;;;9.68;100.00;101608.44;5010764;28;20034;-83
2023/01/06 03:07:37;;;;;;;5.78;1.50;;;;;;;9.71;100.00;101608.25;5011771;28;20013;-83
2023/01/06 03:10:21;;;;;;;4.82;1.45;;;;;;;9.73;100.00;101611.63;5011240;28;20108;-82
2023/01/06 03:13:00;;;;;;;4.40;1.60;;;;;;;9.72;100.00;101607.31;5011061;28;20018;-83
2023/01/06 03:15:25;;;;;;;5.93;1.45;;;;;;;9.69;100.00;101594.34;5010029;28;20053;-83
2023/01/06 03:17:52;;;;;;;4.35;1.30;;;;;;;9.68;100.00;101590.88;5008246;28;20064;-83
2023/01/06 03:20:42;;;;;;;;;;;;;;;;;;;;;
2023/01/06 03:23:29;;;;;;;3.15;1.15;;;;;;;9.72;100.00;101591.53;5008532;28;20018;-83
2023/01/06 03:26:17;;;;;;;5.20;1.48;;;;;;;9.70;100.00;101581.13;5014879;28;20033;-83
2023/01/06 03:28:42;;;;;;;2.78;1.35;;;;;;;9.67;100.00;101593.59;5033631;28;20030;-83
2023/01/06 03:31:26;;;;;;;4.93;1.40;;;;;;;9.72;100.00;101602.06;5036337;28;20257;-82
2023/01/06 03:34:12;;;;;;;5.35;1.30;;;;;;;9.71;100.00;101592.47;5013806;28;20033;-82
2023/01/06 03:37:45;;;;;;;5.15;1.40;;;;;;;9.74;100.00;101589.66;5025780;28;20092;-82
2023/01/06 03:40:25;;;;;;;5.73;1.60;;;;;;;9.73;100.00;101585.34;5024506;28;20120;-83
2023/01/06 03:43:50;;;;;;;;;;;;;;;;;;;;;
2023/01/06 03:50:11;;;;;;;4.63;1.30;;;;;;;9.77;100.00;101597.38;4985555;28;20633;-82
2023/01/06 03:57:23;;;;;;;4.05;1.30;;;;;;;9.76;100.00;101579.91;4986561;28;20462;-82
2023/01/06 04:07:17;;;;;;;;;;;;;;;;;;;;;
2023/01/06 04:13:44;;;;;;;4.20;1.50;;;;;;;9.83;100.00;101554.97;4931455;29;20397;-81
2023/01/06 04:20:08;;;;;;;3.15;1.30;;;;;;;9.86;100.00;101539.00;4885902;29;20107;-81
2023/01/06 04:23:15;;;;;;;3.47;1.38;;;;;;;9.84;100.00;101535.63;4921938;29;20495;-81
2023/01/06 04:40:02;;;;;;;;;;;;;;;;;;;;;
2023/01/06 04:46:47;;;;;;;;;;;;;;;;;;;;;
2023/01/06 04:53:46;;;;;;;;;;;;;;;;;;;;;
2023/01/06 05:00:17;;;;;;;3.05;1.00;;;;;;;9.85;100.00;101500.53;5004745;28;20068;-81
2023/01/06 05:10:00;;;;;;;2.05;1.05;;;;;;;9.86;100.00;101496.09;5022491;28;20049;-81
2023/01/06 05:12:58;;;;;;;1.85;0.80;;;;;;;9.88;100.00;101492.44;5017503;28;20044;-81
2023/01/06 05:27:48;;;;;;;3.38;1.23;;;;;;;9.83;100.00;101488.41;4966512;28;20088;-82
2023/01/06 05:30:40;;;;;;;;;;;;;;;;;;;;;
2023/01/06 05:33:28;;;;;;;2.90;1.02;;;;;;;9.80;100.00;101489.44;5012216;28;20227;-81
2023/01/06 05:39:47;;;;;;;4.57;1.00;;;;;;;9.86;100.00;101496.94;5028888;28;20068;-81
2023/01/06 05:43:14;;;;;;;2.90;0.90;;;;;;;9.84;100.00;101496.19;5025499;28;20041;-81
2023/01/06 05:59:40;;;;;;;4.03;1.05;;;;;;;9.86;100.00;101499.56;5007890;28;20107;-82
2023/01/06 06:03:26;;;;;;;;;;;;;;;;;;;;;
2023/01/06 06:09:57;;;;;;;1.90;0.90;;;;;;;9.88;100.00;101496.84;4925386;29;20040;-82
2023/01/06 06:13:20;;;;;;;;;;;;;;;;;;;;;
2023/01/06 06:20:08;;;;;;;2.55;1.00;;;;;;;9.88;100.00;101497.69;4962700;28;20061;-82
2023/01/06 06:28:49;;;;;;;3.80;1.17;;;;;;;9.87;100.00;101501.28;4808522;29;20016;-82
2023/01/06 06:38:50;;;;;;;2.08;1.00;;;;;;;9.90;100.00;101490.56;4803042;29;20112;-82
2023/01/06 06:45:52;;;;;;;3.15;1.25;;;;;;;9.91;100.00;101494.03;4753366;30;20535;-81
2023/01/06 06:48:48;;;;;;;;;;;;;;;;;;;;;
2023/01/06 07:02:07;;;;;;;7.55;1.40;;;;;;;9.71;100.00;101500.50;4932870;29;20082;-82
2023/01/06 07:30:28;;;;;;;4.10;1.67;;;;;;;9.43;100.00;101520.53;5022913;28;20338;-81
2023/01/06 07:32:53;;;;;;;3.05;1.80;;;;;;;9.41;100.00;101519.75;4999669;28;1834572;-81
2023/01/06 07:35:25;;;;;;;2.90;1.80;;;;;;;9.40;100.00;101496.22;5065402;28;20052;-82
2023/01/06 07:37:53;;;;;;;2.83;1.70;;;;;;;9.38;100.00;101509.44;5051062;28;20040;-82
2023/01/06 07:40:24;;;;;;;4.03;1.77;;;;;;;9.36;100.00;101516.56;5049619;28;20033;-82
2023/01/06 07:42:50;;;;;;;5.95;1.90;;;;;;;9.36;100.00;101524.44;5032583;28;20032;-82
2023/01/06 07:45:15;;;;;;;4.40;2.30;;;;;;;9.35;100.00;101530.63;5050439;28;20107;-82
2023/01/06 07:47:44;;;;;;;3.40;1.90;;;;;;;9.33;100.00;101524.63;5049543;28;20044;-83
2023/01/06 07:50:41;;;;;;;5.20;2.10;;;;;;;9.36;100.00;101537.56;5035679;28;20025;-82
2023/01/06 07:53:32;;;;;;;4.15;1.83;;;;;;;9.36;100.00;101545.44;5028655;28;20100;-82
2023/01/06 07:56:09;;;;;;;3.63;1.60;;;;;;;9.37;100.00;101552.41;5030712;28;20029;-82
2023/01/06 07:59:10;;;;;;;3.50;1.83;;;;;;;9.40;100.00;101557.47;5049698;28;20060;-82
2023/01/06 08:01:45;;;;;;;6.60;2.00;;;;;;;9.45;100.00;101561.63;5044439;28;20408;-83
2023/01/06 08:07:56;;;;;;;3.63;1.90;;;;;;;9.52;100.00;101562.94;5048381;28;20481;-82
2023/01/06 08:18:00;;;;;;;;;;;;;;;9.60;100.00;101565.97;4980840;28;20090;-82
2023/01/06 08:21:21;;;;;;;;;;;;;;;;;;;;;
2023/01/06 08:23:47;;;;;;;2.05;1.85;;;;;;;9.62;100.00;101580.72;4944982;28;20042;-82
2023/01/06 08:26:51;;;;;;;2.22;2.00;;;;;;;9.67;100.00;101588.34;5018017;28;20412;-82
2023/01/06 08:30:23;;;;;;;;;;;;;;;;;;;;;
2023/01/06 08:33:17;;;;;;;2.80;1.80;;;;;;;9.74;100.00;101590.53;4978484;28;20052;-82
2023/01/06 08:39:51;;;;;;;2.55;2.10;;;;;;;9.74;100.00;101589.66;4967494;28;20043;-82
2023/01/06 08:42:39;;;;;;;3.55;2.25;;;;;;;9.80;100.00;101601.59;4947361;29;20090;-82
2023/01/06 08:48:49;;;;;;;;;;;;;;;9.87;100.00;101618.69;4930983;29;20487;-82
2023/01/06 08:51:27;;;;;;;2.22;1.95;;;;;;;9.82;100.00;101621.59;4948200;29;19914;-82
2023/01/06 08:54:40;;;;;;;3.22;2.40;;;;;;;9.85;100.00;101621.41;4912531;29;20051;-82
2023/01/06 09:11:07;;;;;;;3.92;3.35;;;;;;;9.97;100.00;101646.97;4871289;29;20566;-82
2023/01/06 09:17:56;;;;;;;4.38;3.97;;;;;;;10.08;100.00;101650.78;4822201;29;20697;-81
2023/01/06 09:20:40;;;;;;;4.78;4.20;;;;;;;10.12;100.00;101654.94;4890364;29;20080;-81
2023/01/06 09:23:24;;;;;;;4.45;4.05;;;;;;;10.10;100.00;101656.81;4882677;29;20063;-81
2023/01/06 09:33:09;;;;;;;;;;;;;;;;;;;;;
2023/01/06 09:39:36;;;;;;;;;;;;;;;;;;;;;
2023/01/06 09:42:52;;;;;;;;;;;;;;;;;;;;;
2023/01/06 10:25:45;;;;;;;5.00;3.70;;;;;;;10.39;100.00;101708.53;4959292;28;20486;-81
2023/01/06 10:29:08;;;;;;;;;;;;;;;;;;;;;
2023/01/06 10:36:07;;;;;;;8.45;3.50;;;;;;;10.32;100.00;101712.47;4912015;29;20120;-83
2023/01/06 10:49:22;;;;;;;;;;;;;;;;;;;;;
2023/01/06 10:59:02;;;;;;;7.45;6.72;;;;;;;10.42;100.00;101710.16;4911846;29;20222;-82
2023/01/06 11:02:20;;;;;;;7.25;6.57;;;;;;;10.40;100.00;101707.59;4927388;28;20388;-82
2023/01/06 11:25:38;;;;;;;9.60;7.32;;;;;;;10.52;99.67;101701.63;4909785;29;20043;-81
2023/01/06 11:35:57;;;;;;;;;;;;;;;;;;;;;
2023/01/06 11:56:05;;;;;;;6.85;4.45;;;;;;;10.27;94.43;101689.06;4894175;29;20687;-82
2023/01/06 12:53:41;;;;;;;12.00;7.95;;;;;;;11.06;93.04;101667.56;4947951;28;20038;-82
2023/01/06 13:00:13;;;;;;;12.25;7.40;;;;;;;11.04;93.76;101676.53;4922595;29;20047;-81
2023/01/06 13:03:31;;;;;;;10.85;7.53;;;;;;;11.02;93.60;101678.41;4932400;29;20116;-82
2023/01/06 13:13:28;;;;;;;8.88;4.68;;;;;;;10.91;93.03;101671.19;4982651;28;20038;-82
2023/01/06 13:19:47;;;;;;;6.13;4.00;;;;;;;10.76;92.89;101680.84;4992878;28;20034;-82
2023/01/06 13:22:32;;;;;;;9.90;4.07;;;;;;;10.74;93.16;101681.88;4989890;28;20046;-82
2023/01/06 13:25:37;;;;;;;5.03;2.47;;;;;;;10.73;92.39;101680.19;5003826;28;20042;-82
2023/01/06 13:28:19;;;;;;;5.18;2.17;;;;;;;10.75;93.17;101688.84;5024758;28;20061;-82
2023/01/06 13:31:26;;;;;;;;;;;;;;;;;;;;;
2023/01/06 13:40:54;;;;;;;7.07;2.25;;;;;;;10.65;93.51;101667.50;4936629;29;20119;-82
2023/01/06 13:43:24;;;;;;;5.07;1.90;;;;;;;10.67;94.66;101655.94;5049273;28;20068;-82
2023/01/06 13:46:04;;;;;;;7.47;2.22;;;;;;;10.73;94.48;101664.41;5031478;28;20036;-82
2023/01/06 13:49:15;;;;;;;3.65;1.77;;;;;;;10.79;94.46;101658.75;5049257;28;20486;-82
2023/01/06 13:51:43;;;;;;;5.15;2.05;;;;;;;10.89;94.92;101659.91;5017652;28;20043;-82
2023/01/06 13:54:40;;;;;;;5.70;1.90;;;;;;;11.04;94.94;101648.41;5029423;28;20116;-82
2023/01/06 13:57:35;;;;;;;5.75;1.70;;;;;;;11.17;94.07;101657.19;5003372;28;20053;-82
2023/01/06 14:00:03;;;;;;;6.43;1.98;;;;;;;11.33;93.00;101664.16;5029416;28;20035;-82
2023/01/06 14:02:53;;;;;;;5.97;1.90;;;;;;;11.39;92.98;101659.31;5047798;28;20037;-82
2023/01/06 14:05:26;;;;;;;6.28;1.90;;;;;;;11.43;93.06;101657.34;5047613;28;20065;-82
2023/01/06 14:08:00;;;;;;;5.95;1.75;;;;;;;11.46;92.57;101665.03;5047495;28;20501;-83
2023/01/06 14:10:38;;;;;;;4.22;1.70;;;;;;;11.51;92.55;101662.94;5012258;28;20088;-82
2023/01/06 14:13:25;;;;;;;3.50;1.90;;;;;;;11.51;91.77;101655.91;5018356;28;20044;-82
2023/01/06 14:16:02;;;;;;;6.22;2.10;;;;;;;11.54;92.84;101663.59;5013368;28;20076;-82
2023/01/06 14:19:03;;;;;;;3.92;1.70;;;;;;;11.56;93.70;101666.13;5027605;28;20037;-83
2023/01/06 14:21:45;;;;;;;7.15;2.13;;;;;;;11.49;93.03;101660.41;5011835;28;20045;-83
2023/01/06 14:24:39;;;;;;;6.25;2.50;;;;;;;11.54;93.96;101668.03;5012113;28;20070;-83
2023/01/06 14:27:33;;;;;;;4.85;2.28;;;;;;;11.52;92.99;101659.38;5027424;28;20045;-83
2023/01/06 14:30:19;;;;;;;4.93;2.13;;;;;;;11.53;93.99;101655.78;5031855;28;20092;-81
2023/01/06 14:32:51;;;;;;;4.97;2.15;;;;;;;11.46;94.07;101646.59;5008020;28;20406;-81
2023/01/06 14:35:30;;;;;;;4.38;2.30;;;;;;;11.49;94.16;101649.03;5036163;28;20041;-81
2023/01/06 14:38:22;;;;;;;4.95;1.80;;;;;;;11.44;94.53;101646.69;5042344;28;20397;-81
2023/01/06 14:41:01;;;;;;;5.07;2.10;;;;;;;11.43;95.23;101650.28;5067207;28;20032;-82
2023/01/06 14:43:36;;;;;;;6.28;2.10;;;;;;;11.41;95.89;101644.25;5049807;28;20132;-83
2023/01/06 14:46:29;;;;;;;4.70;2.40;;;;;;;11.37;95.94;101640.13;5053404;28;20045;-82
2023/01/06 14:49:00;;;;;;;6.90;2.50;;;;;;;11.29;96.57;101638.00;5043534;28;20037;-82
2023/01/06 14:51:34;;;;;;;5.35;2.38;;;;;;;11.24;97.06;101644.50;5048040;28;20844;-82
2023/01/06 14:54:23;;;;;;;3.10;2.10;;;;;;;11.21;97.50;101648.19;5051544;28;20473;-81
2023/01/06 14:57:19;;;;;;;4.70;2.33;;;;;;;11.17;97.93;101645.81;5051103;28;20040;-82
2023/01/06 15:00:03;;;;;;;3.55;2.50;;;;;;;11.14;98.34;101653.91;5040293;28;20044;-83
2023/01/06 15:02:31;;;;;;;3.40;2.00;;;;;;;11.02;98.90;101650.28;5036761;28;20028;-82
2023/01/06 15:05:00;;;;;;;3.95;2.20;;;;;;;10.94;99.56;101647.28;5049330;28;20056;-82
2023/01/06 15:07:26;;;;;;;2.20;1.83;;;;;;;10.88;100.00;101632.72;5051578;28;20040;-83
2023/01/06 15:09:51;;;;;;;2.80;1.77;;;;;;;10.77;100.00;101624.63;5038878;28;20029;-83
2023/01/06 15:12:27;;;;;;;2.88;1.83;;;;;;;10.72;100.00;101631.13;5050560;28;20055;-83
2023/01/06 15:14:56;;;;;;;2.00;1.80;;;;;;;10.62;100.00;101634.34;5051093;28;20111;-82
2023/01/06 15:20:23;;;;;;;1.80;1.70;;;;;;;10.49;100.00;101646.56;5050834;28;20056;-82
2023/01/06 15:22:50;;;;;;;2.75;1.70;;;;;;;10.47;100.00;101644.97;5050352;28;20162;-82
2023/01/06 15:25:27;;;;;;;1.98;1.80;;;;;;;10.39;100.00;101642.75;5032225;28;20029;-82
2023/01/06 15:27:54;;;;;;;2.10;1.90;;;;;;;10.32;100.00;101639.66;5049861;28;20123;-82
2023/01/06 15:30:33;;;;;;;2.58;1.83;;;;;;;10.29;100.00;101641.63;5062621;28;20488;-82
2023/01/06 15:33:01;;;;;;;3.40;2.10;;;;;;;10.22;100.00;101642.94;5050976;28;20025;-82
2023/01/06 15:35:40;;;;;;;3.35;2.10;;;;;;;10.22;100.00;101643.78;5048841;28;20389;-81
2023/01/06 15:38:24;;;;;;;2.20;1.98;;;;;;;10.17;100.00;101637.09;5049402;28;20048;-82
2023/01/06 15:41:31;;;;;;;4.05;2.30;;;;;;;10.17;100.00;101634.47;5050341;28;20040;-82
2023/01/06 15:43:59;;;;;;;2.65;2.45;;;;;;;10.10;100.00;101638.38;5020772;28;20043;-82
2023/01/06 15:46:45;;;;;;;3.75;2.53;;;;;;;10.09;100.00;101641.97;5037593;28;20029;-81
2023/01/06 15:49:34;;;;;;;2.85;2.55;;;;;;;10.07;100.00;101656.97;5063150;28;20040;-82
2023/01/06 15:52:37;;;;;;;3.03;2.78;;;;;;;10.03;100.00;101649.28;5030886;28;20118;-82
2023/01/06 15:55:05;;;;;;;;;;;;;;;10.08;100.00;101645.53;5042445;28;20036;-82
2023/01/06 15:57:35;;;;;;;3.38;3.08;;;;;;;9.97;100.00;101639.09;5031868;28;20266;-82
2023/01/06 16:00:07;;;;;;;3.22;3.00;;;;;;;9.99;100.00;101641.63;5049512;28;20087;-82
2023/01/06 16:02:32;;;;;;;4.07;3.38;;;;;;;9.97;100.00;101636.47;5024703;28;20037;-82
2023/01/06 16:05:37;;;;;;;3.63;3.10;;;;;;;9.98;100.00;101648.66;5050688;28;20029;-82
2023/01/06 16:08:05;;;;;;;5.82;3.50;;;;;;;9.93;100.00;101637.59;5032344;28;20028;-82
2023/01/06 16:10:42;;;;;;;3.83;3.53;;;;;;;9.91;100.00;101638.59;5050423;28;20400;-82
2023/01/06 16:13:11;;;;;;;4.10;3.70;;;;;;;9.89;100.00;101641.34;5061430;28;20416;-82
2023/01/06 16:16:08;;;;;;;4.30;4.00;;;;;;;9.91;100.00;101638.59;5050985;28;20036;-82
2023/01/06 16:18:49;;;;;;;4.25;3.88;;;;;;;9.88;100.00;101634.38;5050410;28;20083;-82
2023/01/06 16:21:39;;;;;;;;;;;;;;;;;;;;;
2023/01/06 16:24:05;;;;;;;4.40;4.00;;;;;;;9.88;100.00;101630.91;5051328;28;20032;-82
2023/01/06 16:26:55;;;;;;;4.95;4.18;;;;;;;9.86;100.00;101627.53;5046982;28;20037;-82
2023/01/06 16:29:35;;;;;;;5.03;4.15;;;;;;;9.84;100.00;101632.88;5048775;28;20037;-82
2023/01/06 16:32:27;;;;;;;4.50;4.10;;;;;;;9.84;100.00;101627.63;5040519;28;20037;-82
2023/01/06 16:34:54;;;;;;;4.45;3.97;;;;;;;9.83;100.00;101635.59;5042121;28;20032;-82
2023/01/06 16:37:22;;;;;;;4.38;4.07;;;;;;;9.81;100.00;101633.06;5045765;28;20033;-82
2023/01/06 16:39:56;;;;;;;6.15;5.05;;;;;;;9.80;100.00;101636.63;5035318;28;20056;-82
2023/01/06 16:43:38;;;;;;;5.90;5.32;;;;;;;9.81;100.00;101635.69;5039432;28;20509;-82
2023/01/06 16:45:49;;;;;;;9.10;7.50;;;;;;;9.85;100.00;101628.47;5040405;28;20072;-82
2023/01/06 16:48:16;;;;;;;10.65;8.85;;;;;;;9.83;100.00;101623.28;5030661;28;20330;-82
2023/01/06 16:50:45;;;;;;;7.32;6.47;;;;;;;9.87;100.00;101621.34;5042383;28;20464;-82
2023/01/06 16:53:15;;;;;;;6.90;6.20;;;;;;;9.81;100.00;101617.28;5030194;28;20029;-82
2023/01/06 16:55:41;;;;;;;6.03;5.47;;;;;;;9.81;100.00;101627.78;5025084;28;20512;-82
2023/01/06 16:58:36;;;;;;;6.35;5.53;;;;;;;9.83;100.00;101625.91;5041666;28;20044;-82
2023/01/06 17:01:36;;;;;;;6.32;5.40;;;;;;;9.77;100.00;101626.28;5045433;28;20033;-82
2023/01/06 17:04:02;;;;;;;6.53;5.80;;;;;;;9.76;100.00;101614.06;5058773;28;20048;-82
2023/01/06 17:06:30;;;;;;;6.18;5.57;;;;;;;9.75;100.00;101607.13;5027553;28;20028;-82
2023/01/06 17:09:03;;;;;;;9.38;6.18;;;;;;;9.79;100.00;101626.19;5052509;28;20180;-82
2023/01/06 17:11:36;;;;;;;7.60;6.03;;;;;;;9.77;100.00;101615.78;5047508;28;20039;-81
2023/01/06 17:14:08;;;;;;;7.15;6.05;;;;;;;9.79;100.00;101621.78;5026214;28;20045;-82
2023/01/06 17:16:38;;;;;;;6.75;6.05;;;;;;;9.80;100.00;101620.84;5042944;28;20033;-82
2023/01/06 17:19:31;;;;;;;7.15;6.07;;;;;;;9.80;100.00;101620.00;5048973;28;20037;-82
2023/01/06 17:21:59;;;;;;;;;;;;;;;9.88;100.00;101623.88;5050148;28;20033;-82
2023/01/06 17:24:27;;;;;;;5.80;5.30;;;;;;;9.85;100.00;101610.91;5048365;28;19915;-82
2023/01/06 17:27:22;;;;;;;7.53;6.05;;;;;;;9.89;100.00;101615.03;5049466;28;20108;-82
2023/01/06 17:29:52;;;;;;;6.38;5.60;;;;;;;9.87;100.00;101606.41;5037805;28;20034;-82
2023/01/06 17:32:36;;;;;;;6.28;5.72;;;;;;;9.91;100.00;101618.44;5035936;28;20471;-81
2023/01/06 17:35:30;;;;;;;6.57;5.82;;;;;;;9.94;100.00;101606.88;5024396;28;20037;-82
2023/01/06 17:38:09;;;;;;;6.20;5.60;;;;;;;9.93;100.00;101611.28;5022619;28;20056;-82
2023/01/06 17:40:40;;;;;;;6.07;5.55;;;;;;;9.96;100.00;101611.13;5021847;28;20481;-82
2023/01/06 17:43:25;;;;;;;6.00;5.40;;;;;;;10.00;100.00;101615.25;5016113;28;20341;-82
2023/01/06 17:45:51;;;;;;;6.32;5.22;;;;;;;10.02;100.00;101615.19;5002823;28;20040;-82
2023/01/06 17:48:17;;;;;;;6.53;5.90;;;;;;;10.01;100.00;101609.09;5028628;28;20482;-82
2023/01/06 17:51:02;;;;;;;6.20;5.70;;;;;;;10.05;100.00;101602.69;5024546;28;20033;-82
2023/01/06 17:56:21;;;;;;;6.53;5.85;;;;;;;10.04;100.00;101613.31;5029135;28;20113;-82
2023/01/06 17:58:48;;;;;;;7.00;6.20;;;;;;;10.02;100.00;101616.03;5041095;28;20064;-81
2023/01/06 18:04:16;;;;;;;7.25;5.88;;;;;;;10.05;100.00;101604.50;5026088;28;20132;-82
2023/01/06 18:06:51;;;;;;;6.90;6.03;;;;;;;10.04;100.00;101616.78;5037024;28;20167;-82
2023/01/06 18:09:29;;;;;;;6.88;5.63;;;;;;;10.07;100.00;101617.53;5032083;28;20041;-82
2023/01/06 18:12:02;;;;;;;6.13;5.53;;;;;;;10.07;100.00;101622.81;5032377;28;20033;-82
2023/01/06 18:14:36;;;;;;;6.05;5.45;;;;;;;10.10;100.00;101622.63;5029870;28;20437;-83
2023/01/06 18:17:28;;;;;;;6.22;5.63;;;;;;;10.11;100.00;101621.69;5039437;28;20044;-82
2023/01/06 18:19:54;;;;;;;6.80;5.20;;;;;;;10.10;100.00;101622.63;5036345;28;20045;-82
2023/01/06 18:22:47;;;;;;;5.72;5.22;;;;;;;10.14;100.00;101621.50;5035082;28;20041;-82
2023/01/06 18:25:26;;;;;;;5.32;4.82;;;;;;;10.14;100.00;101611.81;5024145;28;20148;-83
2023/01/06 18:28:31;;;;;;;7.25;5.10;;;;;;;10.17;100.00;101623.94;5043148;28;20049;-82
2023/01/06 18:32:00;;;;;;;5.55;4.80;;;;;;;10.18;100.00;101636.16;5032528;28;20022;-81
2023/01/06 18:34:51;;;;;;;5.25;4.75;;;;;;;10.15;100.00;101637.19;4970063;28;20142;-83
2023/01/06 18:37:43;;;;;;;4.85;4.03;;;;;;;10.11;100.00;101627.78;4968277;28;20046;-83
2023/01/06 18:41:15;;;;;;;5.10;4.32;;;;;;;10.13;100.00;101627.69;5036945;28;20049;-83
2023/01/06 18:43:49;;;;;;;4.07;3.70;;;;;;;10.10;100.00;101625.25;5044171;28;20067;-83
2023/01/06 18:46:53;;;;;;;;;;;;;;;;;;;;;
2023/01/06 19:06:42;;;;;;;;;;;;;;;;;;;;;
2023/01/06 19:09:48;;;;;;;6.20;5.70;;;;;;;10.08;100.00;101619.22;5031618;28;20028;-83
2023/01/06 19:13:05;;;;;;;;;;;;;;;;;;;;;
2023/01/06 19:16:23;;;;;;;7.07;6.55;;;;;;;10.06;100.00;101616.69;5045561;28;20506;-82
2023/01/06 19:22:38;;;;;;;6.85;6.25;;;;;;;10.05;100.00;101612.38;5048596;28;20398;-81
2023/01/06 19:28:54;;;;;;;7.63;6.93;;;;;;;10.04;100.00;101598.38;5050733;28;20095;-82
2023/01/06 19:31:21;;;;;;;8.05;7.35;;;;;;;10.01;100.00;101595.94;5048858;28;20037;-81
2023/01/06 19:37:42;;;;;;;8.70;7.95;;;;;;;10.01;100.00;101614.34;5047690;28;20543;-82
2023/01/06 19:40:40;;;;;;;8.90;8.00;;;;;;;10.03;100.00;101612.47;5050991;28;20041;-82
2023/01/06 19:43:16;;;;;;;9.35;8.25;;;;;;;10.00;100.00;101596.84;5050437;28;20076;-82
2023/01/06 19:46:28;;;;;;;9.75;8.18;;;;;;;10.02;100.00;101600.25;5032863;28;20040;-83
2023/01/06 19:48:58;;;;;;;9.70;8.80;;;;;;;9.98;100.00;101603.97;5008754;28;20042;-82
2023/01/06 19:51:29;;;;;;;9.80;9.00;;;;;;;9.97;100.00;101602.28;4995068;28;20043;-83
2023/01/06 19:54:21;;;;;;;10.10;9.20;;;;;;;10.03;100.00;101611.63;5008907;28;20096;-83
2023/01/06 19:59:56;;;;;;;;;;;;;;;;;;;;;
2023/01/06 20:02:44;;;;;;;9.82;8.98;;;;;;;10.01;100.00;101614.34;5012845;28;20109;-82
2023/01/06 20:05:09;;;;;;;10.18;9.27;;;;;;;10.02;100.00;101616.03;5024251;28;20402;-82
2023/01/06 20:07:35;;;;;;;10.65;9.65;;;;;;;10.00;100.00;101611.78;5008082;28;20034;-82